Time;durP1;ratioP1;P1;durP2;ratioP2;P2;SDS_P1;SDS_P2;PMS_P1;PMS_P2;Temp;Humidity;BMP_temperature;BMP_pressure;BME280_temperature;BME280_humidity;BME280_pressure;Samples;Min_cycle;Max_cycle;Signal;HPM_P1;HPM_P2
2022/06/23 00:01:26;;;;;;;5.13;3.45;;;16.00;90.10;;;;;;5107945;28;20020;-43
2022/06/23 00:03:54;;;;;;;5.60;3.25;;;16.00;89.60;;;;;;5083149;28;20518;-45
2022/06/23 00:06:32;;;;;;;5.60;3.55;;;16.00;92.80;;;;;;5111172;28;20038;-43
2022/06/23 00:08:58;;;;;;;7.32;4.20;;;16.00;91.40;;;;;;5083856;28;20412;-44
2022/06/23 00:11:26;;;;;;;6.25;3.97;;;16.00;90.70;;;;;;5110889;28;20057;-43
2022/06/23 00:14:01;;;;;;;4.93;3.20;;;15.90;92.60;;;;;;5089060;28;20185;-46
2022/06/23 00:16:28;;;;;;;5.97;3.10;;;15.90;91.00;;;;;;5070806;28;20033;-43
2022/06/23 00:18:53;;;;;;;4.68;3.50;;;15.90;88.60;;;;;;5094327;28;20307;-43
2022/06/23 00:21:27;;;;;;;4.63;3.60;;;15.90;89.20;;;;;;5110588;28;20103;-43
2022/06/23 00:23:59;;;;;;;4.68;3.28;;;15.90;90.30;;;;;;5081981;28;20055;-43
2022/06/23 00:26:31;;;;;;;7.18;3.38;;;15.80;87.20;;;;;;5071032;28;20086;-43
2022/06/23 00:29:04;;;;;;;6.32;3.22;;;15.90;88.90;;;;;;5082839;28;20044;-43
2022/06/23 00:31:34;;;;;;;5.22;3.45;;;15.80;91.00;;;;;;5090688;28;20036;-44
2022/06/23 00:34:02;;;;;;;5.70;3.55;;;15.80;87.50;;;;;;5094605;28;20060;-43
2022/06/23 00:36:37;;;;;;;4.80;2.85;;;15.80;91.20;;;;;;5110504;28;20031;-43
2022/06/23 00:39:05;;;;;;;3.85;2.70;;;15.70;88.90;;;;;;5088619;28;20031;-44
2022/06/23 00:41:35;;;;;;;3.85;3.00;;;15.70;86.40;;;;;;5110530;28;20122;-43
2022/06/23 00:44:13;;;;;;;4.45;3.60;;;15.60;89.10;;;;;;5082787;28;20107;-44
2022/06/23 00:46:47;;;;;;;7.90;3.53;;;15.70;89.40;;;;;;5070040;28;20063;-43
2022/06/23 00:49:22;;;;;;;4.10;3.33;;;15.70;90.20;;;;;;5083955;28;20031;-43
2022/06/23 00:51:55;;;;;;;4.40;3.00;;;15.60;88.60;;;;;;5070004;28;20029;-44
2022/06/23 00:54:33;;;;;;;5.70;3.28;;;15.60;87.60;;;;;;5084743;28;20040;-43
2022/06/23 00:57:16;;;;;;;5.82;2.90;;;15.60;87.10;;;;;;5110515;28;20031;-43
2022/06/23 01:00:13;;;;;;;7.50;3.25;;;15.50;88.10;;;;;;5085404;28;20016;-44
2022/06/23 01:02:44;;;;;;;5.28;3.38;;;15.50;88.00;;;;;;5105498;28;20115;-43
2022/06/23 01:05:31;;;;;;;5.97;3.40;;;15.40;87.50;;;;;;5110347;28;20027;-43
2022/06/23 01:08:13;;;;;;;4.43;3.28;;;15.40;90.30;;;;;;5076880;28;20106;-43
2022/06/23 01:11:00;;;;;;;4.18;2.83;;;15.40;88.00;;;;;;5110496;27;20036;-44
2022/06/23 01:13:42;;;;;;;4.68;3.28;;;15.30;90.10;;;;;;5097111;28;20066;-45
2022/06/23 01:16:21;;;;;;;6.13;3.08;;;15.30;90.90;;;;;;5069569;28;20055;-43
2022/06/23 01:19:12;;;;;;;4.50;2.90;;;15.30;90.80;;;;;;5090257;28;20035;-49
2022/06/23 01:21:45;;;;;;;7.75;2.83;;;15.20;90.60;;;;;;5069654;28;20112;-46
2022/06/23 01:24:16;;;;;;;3.95;2.80;;;15.20;90.40;;;;;;5082206;28;20028;-49
2022/06/23 01:27:18;;;;;;;3.08;2.58;;;15.20;92.60;;;;;;5109643;28;20376;-45
2022/06/23 01:29:52;;;;;;;4.57;3.20;;;15.20;90.60;;;;;;5086353;28;20046;-46
2022/06/23 01:32:27;;;;;;;4.25;3.10;;;15.10;92.20;;;;;;5069248;28;20075;-46
2022/06/23 01:35:14;;;;;;;3.83;3.28;;;15.10;93.60;;;;;;5087214;28;20028;-46
2022/06/23 01:37:52;;;;;;;4.40;2.88;;;15.10;90.90;;;;;;5069073;28;20183;-46
2022/06/23 01:40:26;;;;;;;4.60;3.45;;;15.00;90.50;;;;;;5109548;28;20024;-46
2022/06/23 01:43:00;;;;;;;4.30;3.30;;;15.00;92.00;;;;;;5072491;28;20025;-46
2022/06/23 01:45:34;;;;;;;7.32;3.42;;;14.90;94.20;;;;;;5109976;28;20020;-46
2022/06/23 01:48:08;;;;;;;5.90;3.45;;;14.90;94.90;;;;;;5074384;28;20454;-47
2022/06/23 01:50:48;;;;;;;3.40;2.80;;;14.90;92.50;;;;;;5108678;28;20019;-46
2022/06/23 01:53:23;;;;;;;4.03;2.80;;;14.80;93.70;;;;;;5078054;28;20059;-47
2022/06/23 01:56:05;;;;;;;5.13;3.17;;;14.80;92.00;;;;;;5109573;28;20034;-46
2022/06/23 01:58:55;;;;;;;3.65;3.17;;;14.80;93.50;;;;;;5082421;28;20020;-46
2022/06/23 02:01:37;;;;;;;4.93;2.80;;;14.70;93.80;;;;;;5086908;28;20028;-47
2022/06/23 02:04:14;;;;;;;4.72;2.90;;;14.70;93.40;;;;;;5090812;28;20028;-45
2022/06/23 02:06:54;;;;;;;3.20;2.33;;;14.60;92.10;;;;;;5068785;28;20480;-46
2022/06/23 02:09:43;;;;;;;3.58;2.47;;;14.50;92.30;;;;;;5081301;28;20024;-45
2022/06/23 02:12:44;;;;;;;3.47;2.95;;;14.50;95.70;;;;;;5068776;28;20039;-47
2022/06/23 02:15:21;;;;;;;4.25;2.92;;;14.50;96.60;;;;;;5065693;28;20194;-46
2022/06/23 02:17:58;;;;;;;6.35;3.47;;;14.40;94.20;;;;;;5068882;28;20029;-46
2022/06/23 02:20:37;;;;;;;3.50;2.50;;;14.40;94.40;;;;;;5109099;27;20395;-46
2022/06/23 02:23:34;;;;;;;2.97;2.65;;;14.30;94.50;;;;;;5089631;28;20039;-46
2022/06/23 02:26:26;;;;;;;6.53;3.13;;;14.30;98.20;;;;;;5109140;28;20051;-46
2022/06/23 02:29:16;;;;;;;7.90;3.10;;;14.30;97.00;;;;;;5086160;28;20507;-47
2022/06/23 02:31:49;;;;;;;3.75;2.75;;;14.30;96.30;;;;;;5068487;28;20030;-46
2022/06/23 02:34:49;;;;;;;5.05;2.63;;;14.20;95.90;;;;;;5079443;28;20078;-46
2022/06/23 02:37:52;;;;;;;3.88;3.05;;;14.10;96.60;;;;;;5052573;28;20062;-45
2022/06/23 02:40:28;;;;;;;4.28;2.97;;;14.10;97.60;;;;;;5108666;28;20035;-47
2022/06/23 02:43:04;;;;;;;6.50;3.20;;;14.10;96.50;;;;;;5068717;28;20029;-46
2022/06/23 02:45:40;;;;;;;;;;;14.00;98.50;;;;;;5109312;28;20046;-47
2022/06/23 02:48:21;;;;;;;2.87;2.50;;;14.10;99.90;;;;;;5071684;28;20491;-46
2022/06/23 02:51:10;;;;;;;3.13;2.47;;;14.00;96.00;;;;;;5108542;28;20624;-46
2022/06/23 02:53:39;;;;;;;4.18;2.72;;;14.00;96.00;;;;;;5079748;28;20092;-47
2022/06/23 02:56:31;;;;;;;3.33;2.63;;;14.00;95.70;;;;;;5108933;28;20031;-48
2022/06/23 02:59:10;;;;;;;5.30;2.85;;;14.00;95.00;;;;;;5085436;28;20072;-47
2022/06/23 03:02:05;;;;;;;2.80;2.42;;;14.00;96.90;;;;;;5064735;28;20038;-46
2022/06/23 03:04:58;;;;;;;4.50;2.72;;;14.00;95.50;;;;;;5080482;28;20103;-46
2022/06/23 03:07:39;;;;;;;2.80;2.38;;;14.00;94.60;;;;;;5068513;28;20024;-45
2022/06/23 03:10:13;;;;;;;3.22;2.60;;;14.00;94.30;;;;;;5086335;28;20030;-46
2022/06/23 03:12:47;;;;;;;4.53;2.72;;;14.00;93.80;;;;;;5088068;28;20028;-47
2022/06/23 03:15:27;;;;;;;5.57;2.80;;;14.10;94.80;;;;;;5085754;28;20040;-47
2022/06/23 03:18:02;;;;;;;4.75;2.15;;;14.10;94.30;;;;;;5066439;28;20567;-47
2022/06/23 03:20:38;;;;;;;3.38;2.38;;;14.10;92.50;;;;;;5108499;28;20034;-45
2022/06/23 03:23:20;;;;;;;3.05;2.60;;;14.10;92.00;;;;;;5087423;28;20163;-46
2022/06/23 03:25:56;;;;;;;5.05;2.90;;;14.20;93.00;;;;;;5108602;28;20040;-46
2022/06/23 03:28:31;;;;;;;3.00;2.70;;;14.20;91.50;;;;;;5084526;28;20048;-45
2022/06/23 03:31:14;;;;;;;3.67;2.53;;;14.30;91.50;;;;;;5088132;28;20024;-46
2022/06/23 03:33:55;;;;;;;3.30;2.22;;;14.40;91.00;;;;;;5078418;28;20053;-46
2022/06/23 03:36:27;;;;;;;5.30;2.40;;;14.40;90.20;;;;;;5108190;28;20076;-45
2022/06/23 03:42:26;;;;;;;3.72;2.42;;;14.70;87.90;;;;;;5066757;28;20138;-46
2022/06/23 03:45:10;;;;;;;3.42;2.15;;;15.60;82.80;;;;;;5085217;28;20032;-46
2022/06/23 03:47:42;;;;;;;2.17;1.55;;;16.60;73.90;;;;;;5067838;28;20045;-46
2022/06/23 03:50:31;;;;;;;2.85;1.85;;;17.70;68.70;;;;;;5076870;28;20036;-46
2022/06/23 03:53:17;;;;;;;3.33;1.80;;;18.60;58.80;;;;;;5068102;28;20033;-46
2022/06/23 03:55:54;;;;;;;2.85;1.42;;;19.50;51.30;;;;;;5092388;28;20039;-46
2022/06/23 03:58:29;;;;;;;2.10;1.52;;;20.20;54.40;;;;;;5071482;28;20040;-46
2022/06/23 04:01:07;;;;;;;1.52;1.42;;;20.90;50.40;;;;;;5089215;28;20024;-47
2022/06/23 04:03:42;;;;;;;1.67;1.58;;;21.50;45.00;;;;;;5077694;28;20033;-46
2022/06/23 04:06:22;;;;;;;2.35;1.50;;;22.10;40.80;;;;;;5111649;28;20016;-50
2022/06/23 04:09:00;;;;;;;2.50;1.50;;;22.70;30.00;;;;;;5081958;28;20023;-47
2022/06/23 04:11:43;;;;;;;2.10;1.40;;;23.20;32.20;;;;;;5112037;28;20387;-44
2022/06/23 04:14:12;;;;;;;2.83;1.40;;;23.80;36.60;;;;;;5087278;28;20032;-49
2022/06/23 04:16:39;;;;;;;2.60;1.30;;;24.30;34.60;;;;;;5091279;28;20727;-44
2022/06/23 04:19:13;;;;;;;3.72;1.63;;;24.80;30.10;;;;;;5108960;28;20436;-44
2022/06/23 04:21:45;;;;;;;2.38;1.33;;;24.90;22.90;;;;;;5071158;28;20064;-47
2022/06/23 04:24:25;;;;;;;2.58;1.30;;;25.30;21.60;;;;;;5087182;28;20035;-50
2022/06/23 04:26:56;;;;;;;2.17;1.25;;;25.70;16.40;;;;;;5070839;28;20036;-45
2022/06/23 04:29:35;;;;;;;1.45;1.35;;;26.10;22.60;;;;;;5089686;28;20377;-49
2022/06/23 04:32:21;;;;;;;2.08;1.20;;;26.60;17.40;;;;;;5070924;28;20032;-46
2022/06/23 04:34:53;;;;;;;;;;;26.90;9.20;;;;;;5083163;28;20058;-47
2022/06/23 04:37:47;;;;;;;2.42;1.33;;;27.20;7.00;;;;;;5110830;28;19911;-46
2022/06/23 04:40:23;;;;;;;2.00;1.17;;;27.60;15.20;;;;;;5085948;28;20031;-45
2022/06/23 04:42:58;;;;;;;1.55;1.08;;;28.10;12.90;;;;;;5070741;28;20112;-46
2022/06/23 04:45:29;;;;;;;1.52;1.00;;;28.60;13.60;;;;;;5087531;28;20130;-47
2022/06/23 04:47:58;;;;;;;3.00;1.00;;;29.10;11.30;;;;;;5075194;28;20095;-45
2022/06/23 04:50:39;;;;;;;1.45;1.17;;;29.50;13.00;;;;;;5090193;28;20651;-47
2022/06/23 04:53:05;;;;;;;1.40;1.05;;;30.00;5.60;;;;;;5070661;28;20032;-46
2022/06/23 04:55:34;;;;;;;1.52;1.17;;;30.40;9.80;;;;;;5088362;28;20032;-48
2022/06/23 04:58:22;;;;;;;2.10;1.15;;;30.70;7.90;;;;;;5110246;28;20672;-47
2022/06/23 05:00:52;;;;;;;1.20;1.10;;;30.70;1.00;;;;;;5104138;28;20023;-46
2022/06/23 05:03:30;;;;;;;2.22;1.10;;;30.50;4.30;;;;;;5089026;28;20050;-49
2022/06/23 05:06:48;;;;;;;1.85;1.02;;;30.20;4.80;;;;;;5110805;28;20102;-45
2022/06/23 05:09:36;;;;;;;2.28;1.23;;;30.50;1.20;;;;;;5064496;28;20118;-46
2022/06/23 05:12:16;;;;;;;2.22;1.25;;;30.80;1.00;;;;;;5069608;28;20035;-46
2022/06/23 05:14:50;;;;;;;2.05;1.15;;;30.50;3.50;;;;;;5091586;28;20084;-45
2022/06/23 05:17:28;;;;;;;1.80;1.30;;;30.80;1.90;;;;;;5069725;28;20047;-45
2022/06/23 05:19:59;;;;;;;1.10;1.00;;;30.70;1.00;;;;;;5079785;28;20031;-48
2022/06/23 05:22:31;;;;;;;1.23;1.10;;;31.00;1.30;;;;;;5097360;28;20036;-46
2022/06/23 05:24:59;;;;;;;1.70;1.20;;;31.50;1.00;;;;;;5085571;28;20028;-47
2022/06/23 05:27:30;;;;;;;1.77;1.20;;;31.70;1.00;;;;;;5105276;28;20115;-45
2022/06/23 05:30:06;;;;;;;1.92;1.40;;;31.90;1.00;;;;;;5100369;28;20155;-46
2022/06/23 05:32:39;;;;;;;1.55;1.27;;;31.90;1.00;;;;;;5069144;28;20032;-46
2022/06/23 05:35:22;;;;;;;2.90;1.55;;;31.80;1.00;;;;;;5081870;28;20537;-46
2022/06/23 05:37:53;;;;;;;1.10;1.00;;;31.50;1.00;;;;;;5069396;28;20024;-46
2022/06/23 05:40:28;;;;;;;3.38;1.40;;;32.20;1.00;;;;;;5083881;28;20035;-46
2022/06/23 05:42:58;;;;;;;;;;;33.10;1.00;;;;;;5068386;28;20374;-46
2022/06/23 05:45:26;;;;;;;1.80;1.17;;;34.00;1.00;;;;;;5090329;28;19923;-46
2022/06/23 05:47:54;;;;;;;2.05;1.40;;;34.50;1.00;;;;;;5109065;28;20102;-46
2022/06/23 05:50:28;;;;;;;2.67;2.10;;;34.70;1.00;;;;;;5087627;28;20032;-50
2022/06/23 05:53:07;;;;;;;3.20;1.85;;;34.40;1.00;;;;;;5069009;28;20035;-46
2022/06/23 05:55:40;;;;;;;4.07;2.13;;;34.70;1.00;;;;;;5084999;28;20047;-46
2022/06/23 05:58:20;;;;;;;2.55;1.52;;;34.60;1.00;;;;;;5089072;28;20028;-47
2022/06/23 06:01:24;;;;;;;3.63;1.65;;;34.30;1.00;;;;;;5083545;28;20111;-48
2022/06/23 06:03:53;;;;;;;1.75;1.25;;;33.90;1.00;;;;;;5050525;28;20047;-47
2022/06/23 06:06:19;;;;;;;1.45;1.13;;;33.90;1.00;;;;;;5108918;28;20031;-45
2022/06/23 06:11:38;;;;;;;2.42;1.50;;;34.30;1.00;;;;;;5109153;28;20068;-48
2022/06/23 06:14:05;;;;;;;2.83;1.65;;;34.50;1.00;;;;;;5092301;28;20024;-51
2022/06/23 06:16:31;;;;;;;3.47;1.58;;;34.70;1.00;;;;;;5109175;28;20028;-48
2022/06/23 06:18:57;;;;;;;2.60;1.50;;;34.70;1.00;;;;;;5091039;28;20031;-49
2022/06/23 06:21:25;;;;;;;1.45;1.30;;;35.00;1.00;;;;;;5108978;28;20030;-49
2022/06/23 06:24:28;;;;;;;1.75;1.35;;;35.40;1.00;;;;;;5089231;28;20089;-46
2022/06/23 06:26:55;;;;;;;1.85;1.23;;;35.60;1.00;;;;;;5088843;28;20111;-47
2022/06/23 06:29:22;;;;;;;2.17;1.27;;;35.60;1.00;;;;;;5106321;28;20044;-47
2022/06/23 06:31:54;;;;;;;2.85;1.33;;;35.40;1.00;;;;;;5108910;28;20019;-46
2022/06/23 06:34:41;;;;;;;2.78;1.23;;;36.30;1.00;;;;;;5079464;28;20035;-46
2022/06/23 06:37:11;;;;;;;4.10;1.38;;;36.70;1.00;;;;;;5068266;28;20032;-46
2022/06/23 06:39:39;;;;;;;1.85;1.27;;;37.20;1.00;;;;;;5095385;28;20065;-48
2022/06/23 06:42:13;;;;;;;2.53;1.38;;;37.70;1.00;;;;;;5088809;28;20024;-48
2022/06/23 06:44:44;;;;;;;1.73;1.10;;;38.30;1.00;;;;;;5084532;28;20059;-46
2022/06/23 06:47:18;;;;;;;3.40;1.45;;;38.70;1.00;;;;;;5068327;28;20040;-46
2022/06/23 06:49:45;;;;;;;3.28;1.38;;;38.90;1.00;;;;;;5084386;28;20040;-47
2022/06/23 06:52:11;;;;;;;2.13;1.63;;;39.20;1.00;;;;;;5088525;28;20021;-46
2022/06/23 06:54:41;;;;;;;1.20;1.00;;;39.90;1.00;;;;;;5106092;28;20197;-47
2022/06/23 06:57:15;;;;;;;1.80;1.40;;;40.10;1.00;;;;;;5088355;28;20068;-46
2022/06/23 06:59:54;;;;;;;1.67;1.20;;;40.50;1.00;;;;;;5079499;28;20035;-46
2022/06/23 07:02:33;;;;;;;1.17;1.00;;;41.10;1.00;;;;;;5067885;28;20578;-47
2022/06/23 07:05:06;;;;;;;1.83;1.25;;;41.10;1.00;;;;;;5088565;28;20028;-51
2022/06/23 07:07:37;;;;;;;2.25;1.27;;;41.20;1.00;;;;;;5068090;28;20024;-46
2022/06/23 07:10:11;;;;;;;1.38;1.13;;;41.80;1.00;;;;;;5089284;28;20480;-46
2022/06/23 07:12:51;;;;;;;2.17;1.20;;;41.70;1.00;;;;;;5067894;28;20047;-47
2022/06/23 07:15:44;;;;;;;1.50;1.27;;;41.30;1.00;;;;;;5079657;28;20145;-48
2022/06/23 07:18:35;;;;;;;1.30;1.20;;;41.20;1.00;;;;;;5067993;28;20025;-48
2022/06/23 07:21:18;;;;;;;1.83;1.40;;;40.90;1.00;;;;;;5085575;28;20024;-51
2022/06/23 07:23:54;;;;;;;1.50;1.10;;;41.20;1.00;;;;;;5066686;28;20060;-58
2022/06/23 07:26:33;;;;;;;1.92;1.08;;;40.90;1.00;;;;;;5108439;28;20023;-52
2022/06/23 07:29:07;;;;;;;1.65;1.10;;;41.20;1.00;;;;;;5069913;28;20562;-47
2022/06/23 07:31:59;;;;;;;3.17;1.20;;;41.20;1.00;;;;;;5108195;28;20081;-47
2022/06/23 07:34:27;;;;;;;1.60;1.00;;;41.60;1.00;;;;;;5079328;28;20305;-48
2022/06/23 07:36:57;;;;;;;1.55;1.13;;;41.60;1.00;;;;;;5112182;28;20035;-47
2022/06/23 07:39:28;;;;;;;1.50;1.38;;;41.90;1.00;;;;;;5095047;28;20023;-49
2022/06/23 07:42:09;;;;;;;3.05;1.27;;;41.20;1.00;;;;;;5112274;28;20114;-49
2022/06/23 07:44:39;;;;;;;0.93;0.85;;;40.50;1.00;;;;;;5082930;28;20023;-48
2022/06/23 07:47:05;;;;;;;2.08;1.30;;;40.80;1.00;;;;;;5112071;28;20365;-51
2022/06/23 07:49:33;;;;;;;1.52;0.80;;;41.20;1.00;;;;;;5096401;28;20035;-51
2022/06/23 07:52:00;;;;;;;2.78;1.38;;;41.20;1.00;;;;;;5114582;28;20043;-50
2022/06/23 07:54:27;;;;;;;1.65;1.10;;;41.40;1.00;;;;;;5099495;28;20104;-50
2022/06/23 07:56:53;;;;;;;1.60;0.80;;;41.40;1.00;;;;;;5112319;28;20054;-47
2022/06/23 07:59:23;;;;;;;0.95;0.80;;;41.40;1.00;;;;;;5094235;28;20019;-53
2022/06/23 08:02:09;;;;;;;1.38;1.13;;;41.80;1.00;;;;;;5126643;28;20030;-50
2022/06/23 08:04:51;;;;;;;1.40;0.98;;;42.10;1.00;;;;;;5087821;28;20489;-52
2022/06/23 08:07:17;;;;;;;2.10;1.00;;;42.10;1.00;;;;;;5111642;28;20030;-50
2022/06/23 08:09:58;;;;;;;2.22;1.20;;;41.70;1.00;;;;;;5104364;27;20411;-69
2022/06/23 08:18:31;;;;;;;1.90;1.00;;;41.30;1.00;;;;;;5079234;28;20054;-69
2022/06/23 08:21:18;;;;;;;1.38;0.95;;;41.20;1.00;;;;;;5086565;28;20276;-69
2022/06/23 08:24:00;;;;;;;3.42;1.42;;;41.30;1.00;;;;;;5110921;28;20028;-70
2022/06/23 08:26:26;;;;;;;2.45;1.20;;;40.30;1.00;;;;;;5071048;28;20054;-69
2022/06/23 08:28:57;;;;;;;2.67;0.80;;;38.80;1.00;;;;;;5110126;28;20047;-69
2022/06/23 08:31:23;;;;;;;1.20;1.10;;;39.10;1.00;;;;;;5111111;28;20187;-69
2022/06/23 08:33:49;;;;;;;1.55;1.15;;;39.80;1.00;;;;;;5089784;28;20527;-69
2022/06/23 08:36:20;;;;;;;1.42;1.10;;;40.30;1.00;;;;;;5089015;28;20039;-69
2022/06/23 08:39:06;;;;;;;1.38;1.17;;;39.50;1.00;;;;;;5070488;28;20047;-69
2022/06/23 08:41:56;;;;;;;2.00;1.00;;;39.40;1.00;;;;;;5070710;28;20040;-69
2022/06/23 08:45:04;;;;;;;1.80;1.00;;;39.70;1.00;;;;;;5078338;28;20027;-58
2022/06/23 08:48:01;;;;;;;2.20;1.00;;;39.20;1.00;;;;;;5111081;28;20111;-59
2022/06/23 08:50:49;;;;;;;1.35;1.25;;;38.40;1.00;;;;;;5093849;28;20118;-59
2022/06/23 08:53:24;;;;;;;2.10;1.25;;;37.80;1.00;;;;;;5080635;28;20256;-57
2022/06/23 08:56:15;;;;;;;4.13;1.30;;;36.50;1.00;;;;;;5097977;28;20046;-58
2022/06/23 08:58:56;;;;;;;2.15;1.00;;;36.00;1.00;;;;;;5071158;28;20032;-58
2022/06/23 09:01:48;;;;;;;0.95;0.80;;;36.00;1.00;;;;;;5076437;28;20496;-58
2022/06/23 09:04:33;;;;;;;1.02;0.93;;;36.50;1.00;;;;;;5071353;28;20070;-58
2022/06/23 09:07:22;;;;;;;1.67;1.10;;;36.80;1.00;;;;;;5110632;28;20114;-58
2022/06/23 09:09:51;;;;;;;1.55;1.10;;;36.40;1.00;;;;;;5080869;28;20034;-59
2022/06/23 09:12:23;;;;;;;3.35;1.25;;;35.80;1.00;;;;;;5110717;28;20020;-59
2022/06/23 09:15:10;;;;;;;1.73;1.20;;;34.90;1.00;;;;;;5080530;28;20059;-58
2022/06/23 09:18:02;;;;;;;2.45;1.63;;;34.30;1.00;;;;;;5110482;28;20094;-59
2022/06/23 09:20:41;;;;;;;2.40;1.23;;;34.40;1.00;;;;;;5091420;28;20114;-59
2022/06/23 09:23:37;;;;;;;2.42;1.27;;;33.40;1.00;;;;;;5070047;28;20064;-58
2022/06/23 09:26:34;;;;;;;1.83;1.02;;;32.20;1.00;;;;;;5084211;28;20031;-58
2022/06/23 09:29:34;;;;;;;1.20;1.10;;;32.50;1.00;;;;;;5068376;28;20408;-58
2022/06/23 09:32:08;;;;;;;2.90;1.27;;;33.40;1.00;;;;;;5069423;28;20116;-58
2022/06/23 09:34:48;;;;;;;3.47;1.50;;;33.80;1.00;;;;;;5074771;28;20032;-58
2022/06/23 09:37:35;;;;;;;2.65;1.25;;;34.00;1.00;;;;;;5110277;28;20023;-57
2022/06/23 09:40:18;;;;;;;2.53;1.20;;;33.80;1.00;;;;;;5082010;28;20054;-58
2022/06/23 09:43:12;;;;;;;1.35;0.95;;;33.20;1.00;;;;;;5069343;28;20089;-59
2022/06/23 09:45:44;;;;;;;1.70;1.20;;;33.50;1.00;;;;;;5091943;28;20030;-57
2022/06/23 09:48:25;;;;;;;1.55;1.30;;;33.50;1.00;;;;;;5089871;28;20032;-56
2022/06/23 09:51:00;;;;;;;1.08;1.00;;;33.50;1.00;;;;;;5081414;28;20032;-58
2022/06/23 09:53:51;;;;;;;1.65;1.08;;;32.90;1.00;;;;;;5069266;28;20040;-55
2022/06/23 09:56:35;;;;;;;2.90;0.90;;;32.90;1.00;;;;;;5084398;28;20044;-57
2022/06/23 09:59:35;;;;;;;2.05;1.08;;;33.00;1.00;;;;;;5108603;28;20407;-57
2022/06/23 10:02:04;;;;;;;1.60;1.35;;;32.80;1.00;;;;;;5068718;28;20028;-55
2022/06/23 10:04:53;;;;;;;2.72;1.40;;;32.60;1.00;;;;;;5105639;28;20028;-56
2022/06/23 10:07:27;;;;;;;3.53;1.30;;;32.40;1.00;;;;;;5109445;28;20490;-57
2022/06/23 10:10:15;;;;;;;2.08;1.55;;;32.20;1.00;;;;;;5077166;28;20027;-57
2022/06/23 10:13:02;;;;;;;2.17;1.23;;;31.70;1.00;;;;;;5109472;28;20030;-57
2022/06/23 10:16:05;;;;;;;1.40;1.30;;;31.00;1.00;;;;;;5087158;28;20160;-57
2022/06/23 10:18:58;;;;;;;3.90;1.30;;;30.80;1.00;;;;;;5068455;28;20032;-55
2022/06/23 10:21:29;;;;;;;1.77;1.20;;;30.80;1.00;;;;;;5084562;28;20468;-57
2022/06/23 10:24:38;;;;;;;2.92;1.20;;;30.90;1.00;;;;;;5108318;28;20031;-53
2022/06/23 10:27:21;;;;;;;2.75;1.58;;;30.90;1.00;;;;;;5068420;28;20033;-56
2022/06/23 10:30:01;;;;;;;2.72;1.30;;;30.40;1.00;;;;;;5107237;28;20542;-57
2022/06/23 10:32:56;;;;;;;5.03;1.40;;;30.10;1.00;;;;;;5109127;28;20044;-56
2022/06/23 10:35:33;;;;;;;2.30;1.35;;;30.00;1.00;;;;;;5083739;28;20391;-56
2022/06/23 10:38:37;;;;;;;2.38;1.45;;;29.50;1.00;;;;;;5068294;28;20028;-52
2022/06/23 10:41:26;;;;;;;2.95;1.65;;;29.20;1.00;;;;;;5080697;28;20451;-56
2022/06/23 10:44:05;;;;;;;2.55;1.30;;;28.70;1.00;;;;;;5068729;28;20074;-55
2022/06/23 10:47:05;;;;;;;1.75;1.17;;;28.70;1.00;;;;;;5084132;28;20028;-55
2022/06/23 10:49:49;;;;;;;1.83;1.20;;;28.80;1.00;;;;;;5067254;28;20155;-54
2022/06/23 10:52:23;;;;;;;1.90;1.30;;;28.90;1.00;;;;;;5108765;28;20027;-56
2022/06/23 10:55:19;;;;;;;3.97;1.58;;;28.80;1.00;;;;;;5073418;28;20035;-54
2022/06/23 10:58:02;;;;;;;1.33;1.10;;;28.80;1.00;;;;;;5108978;28;20447;-54
2022/06/23 11:00:32;;;;;;;2.70;1.20;;;28.70;1.00;;;;;;5074973;28;20066;-52
2022/06/23 11:03:28;;;;;;;1.83;1.10;;;28.70;1.00;;;;;;5067983;28;20103;-55
2022/06/23 11:06:18;;;;;;;1.52;1.20;;;28.80;1.00;;;;;;5090593;28;20031;-55
2022/06/23 11:09:05;;;;;;;1.70;1.40;;;28.80;1.00;;;;;;5090450;28;20035;-54
2022/06/23 11:12:03;;;;;;;1.70;1.08;;;28.90;1.00;;;;;;5087564;28;20501;-52
2022/06/23 11:14:47;;;;;;;1.08;0.98;;;28.90;1.00;;;;;;5052861;28;20047;-56
2022/06/23 11:17:21;;;;;;;1.83;1.40;;;29.00;1.00;;;;;;5111991;28;20042;-56
2022/06/23 11:19:52;;;;;;;1.63;1.27;;;28.90;1.00;;;;;;5075029;28;20127;-56
2022/06/23 11:22:43;;;;;;;2.17;1.20;;;28.60;1.00;;;;;;5111267;28;20106;-55
2022/06/23 11:25:36;;;;;;;1.02;0.90;;;28.60;1.00;;;;;;5080648;28;20032;-55
2022/06/23 11:28:25;;;;;;;3.60;1.23;;;28.60;1.00;;;;;;5103987;28;20048;-56
2022/06/23 11:31:37;;;;;;;1.58;1.00;;;28.60;1.00;;;;;;5092088;28;20406;-52
2022/06/23 11:34:31;;;;;;;1.38;0.95;;;28.60;1.00;;;;;;5071573;28;20040;-56
2022/06/23 11:37:37;;;;;;;1.23;0.88;;;28.70;1.00;;;;;;5085842;28;20028;-55
2022/06/23 11:40:31;;;;;;;1.55;0.85;;;28.80;1.00;;;;;;5092560;28;20119;-56
2022/06/23 11:43:34;;;;;;;2.05;1.30;;;28.70;1.00;;;;;;5112140;28;20020;-55
2022/06/23 11:46:02;;;;;;;1.65;1.10;;;28.70;1.00;;;;;;5093345;28;20027;-55
2022/06/23 11:49:01;;;;;;;1.60;1.17;;;28.90;1.00;;;;;;5091788;28;20031;-52
2022/06/23 11:51:34;;;;;;;2.22;1.40;;;28.80;1.00;;;;;;5084986;28;20016;-55
2022/06/23 11:54:31;;;;;;;2.47;1.30;;;28.40;1.00;;;;;;5091493;28;20040;-55
2022/06/23 11:57:20;;;;;;;3.90;1.20;;;28.40;1.00;;;;;;5089301;28;20115;-56
2022/06/23 12:00:10;;;;;;;3.58;1.42;;;28.40;1.00;;;;;;5076030;28;20023;-55
2022/06/23 12:02:48;;;;;;;1.70;1.40;;;28.50;1.00;;;;;;5091547;28;20051;-56
2022/06/23 12:05:31;;;;;;;2.85;1.30;;;28.40;1.00;;;;;;5079089;28;20028;-54
2022/06/23 12:08:27;;;;;;;1.67;1.23;;;28.30;1.00;;;;;;5111849;28;20024;-54
2022/06/23 12:10:52;;;;;;;3.25;1.13;;;28.30;1.00;;;;;;5088179;28;20028;-56
2022/06/23 12:13:18;;;;;;;1.30;1.20;;;28.20;1.00;;;;;;5091849;28;20040;-56
2022/06/23 12:15:50;;;;;;;2.70;1.27;;;28.20;1.00;;;;;;5108855;28;20465;-54
2022/06/23 12:18:40;;;;;;;1.48;1.20;;;28.00;1.00;;;;;;5091001;28;20380;-57
2022/06/23 12:21:48;;;;;;;1.20;1.00;;;28.00;1.00;;;;;;5090096;28;20036;-55
2022/06/23 12:24:27;;;;;;;1.13;1.00;;;28.00;1.00;;;;;;5063573;28;20456;-55
2022/06/23 12:27:08;;;;;;;1.65;1.20;;;28.00;1.00;;;;;;5087198;28;20039;-56
2022/06/23 12:29:48;;;;;;;2.17;1.23;;;27.90;1.00;;;;;;5070932;28;20041;-56
2022/06/23 12:32:37;;;;;;;2.50;1.30;;;27.80;1.00;;;;;;5070552;28;20103;-56
2022/06/23 12:35:26;;;;;;;2.63;1.02;;;27.80;1.00;;;;;;5069388;28;20032;-55
2022/06/23 12:38:05;;;;;;;1.02;0.93;;;27.70;1.00;;;;;;5091036;28;20046;-57
2022/06/23 12:40:37;;;;;;;1.70;1.10;;;27.70;1.00;;;;;;5080155;28;20043;-55
2022/06/23 12:43:22;;;;;;;3.22;1.27;;;27.80;1.00;;;;;;5110231;28;20030;-57
2022/06/23 12:45:57;;;;;;;1.77;1.13;;;27.80;1.00;;;;;;5085925;28;20491;-54
2022/06/23 12:48:23;;;;;;;2.80;1.10;;;27.90;1.00;;;;;;5070623;28;20037;-56
2022/06/23 12:51:31;;;;;;;2.22;1.30;;;27.80;1.00;;;;;;5107775;28;20073;-55
2022/06/23 12:54:14;;;;;;;1.40;1.05;;;27.70;1.00;;;;;;5069240;28;20113;-57
2022/06/23 12:56:55;;;;;;;1.40;0.98;;;27.70;1.00;;;;;;5084317;28;20446;-56
2022/06/23 12:59:23;;;;;;;1.27;1.17;;;27.70;1.00;;;;;;5073713;28;20031;-57
2022/06/23 13:01:57;;;;;;;2.50;1.20;;;27.80;1.00;;;;;;5089272;28;20032;-56
2022/06/23 13:04:31;;;;;;;2.88;1.08;;;27.80;1.00;;;;;;5070486;28;20028;-56
2022/06/23 13:07:36;;;;;;;2.10;1.35;;;27.80;1.00;;;;;;5081485;28;20460;-56
2022/06/23 13:10:13;;;;;;;1.92;1.15;;;27.90;1.00;;;;;;5108651;28;20031;-53
2022/06/23 13:12:57;;;;;;;1.77;1.10;;;28.00;1.00;;;;;;5110651;28;20058;-58
2022/06/23 13:15:58;;;;;;;2.28;1.10;;;28.00;1.00;;;;;;5076597;28;20102;-56
2022/06/23 13:18:39;;;;;;;2.97;1.73;;;28.10;1.00;;;;;;5107088;28;20503;-57
2022/06/23 13:21:15;;;;;;;1.27;1.00;;;28.10;1.00;;;;;;5075609;28;20555;-53
2022/06/23 13:23:51;;;;;;;1.90;1.20;;;28.10;1.00;;;;;;5068803;28;20021;-54
2022/06/23 13:26:25;;;;;;;2.45;1.40;;;28.10;1.00;;;;;;5078292;28;20035;-45
2022/06/23 13:29:18;;;;;;;6.75;1.40;;;28.10;1.00;;;;;;5068669;28;20048;-50
2022/06/23 13:32:22;;;;;;;1.77;1.20;;;28.00;1.00;;;;;;5066997;28;20056;-54
2022/06/23 13:35:01;;;;;;;2.40;1.30;;;28.00;1.00;;;;;;5062462;28;20080;-55
2022/06/23 13:37:42;;;;;;;9.88;1.52;;;27.80;1.00;;;;;;5068717;28;20025;-53
2022/06/23 13:40:20;;;;;;;1.55;1.20;;;27.90;1.00;;;;;;5068144;28;20784;-50
2022/06/23 13:43:02;;;;;;;3.20;1.27;;;27.90;1.00;;;;;;5109109;28;20570;-53
2022/06/23 13:45:55;;;;;;;1.70;1.08;;;28.00;1.00;;;;;;5082704;28;20027;-54
2022/06/23 13:48:55;;;;;;;1.55;1.27;;;28.00;1.00;;;;;;5095924;28;20032;-54
2022/06/23 13:51:33;;;;;;;2.47;1.50;;;28.00;1.00;;;;;;5090235;28;20401;-55
2022/06/23 13:54:04;;;;;;;1.30;1.10;;;27.90;1.00;;;;;;5069555;28;20530;-54
2022/06/23 13:56:38;;;;;;;1.80;1.00;;;28.00;1.00;;;;;;5080085;28;20090;-54
2022/06/23 13:59:25;;;;;;;1.80;1.10;;;28.00;1.00;;;;;;5068097;28;20504;-55
2022/06/23 14:02:29;;;;;;;2.78;1.33;;;28.10;1.00;;;;;;5075195;28;20032;-55
2022/06/23 14:05:21;;;;;;;1.10;1.00;;;28.10;1.00;;;;;;5069332;28;20032;-53
2022/06/23 14:08:07;;;;;;;1.42;1.30;;;28.10;1.00;;;;;;5069260;28;20047;-55
2022/06/23 14:10:36;;;;;;;;;;;28.10;1.00;;;;;;5074305;28;20371;-55
2022/06/23 14:13:06;;;;;;;1.55;0.93;;;28.10;1.00;;;;;;5109568;28;19904;-55
2022/06/23 14:16:10;;;;;;;1.00;0.90;;;28.10;1.00;;;;;;5074359;28;20062;-56